sensor_id;sensor_type;location;lat;lon;timestamp;temperature;humidity
10654;DHT22;5375;51.250;6.776;2023-06-14T00:01:43;25.90;45.20
10654;DHT22;5375;51.250;6.776;2023-06-14T00:04:14;25.80;45.10
10654;DHT22;5375;51.250;6.776;2023-06-14T00:06:42;25.80;45.10
10654;DHT22;5375;51.250;6.776;2023-06-14T00:09:11;25.80;45.10
10654;DHT22;5375;51.250;6.776;2023-06-14T00:11:38;25.80;45.20
10654;DHT22;5375;51.250;6.776;2023-06-14T00:14:05;25.80;45.20
10654;DHT22;5375;51.250;6.776;2023-06-14T00:16:30;25.80;45.20
10654;DHT22;5375;51.250;6.776;2023-06-14T00:18:58;25.80;45.20
10654;DHT22;5375;51.250;6.776;2023-06-14T00:21:23;25.80;45.20
10654;DHT22;5375;51.250;6.776;2023-06-14T00:23:49;25.80;45.30
10654;DHT22;5375;51.250;6.776;2023-06-14T00:26:15;25.80;45.30
10654;DHT22;5375;51.250;6.776;2023-06-14T00:28:40;25.80;45.30
10654;DHT22;5375;51.250;6.776;2023-06-14T00:31:06;25.80;45.30
10654;DHT22;5375;51.250;6.776;2023-06-14T00:33:32;25.80;45.30
10654;DHT22;5375;51.250;6.776;2023-06-14T00:35:57;25.80;45.30
10654;DHT22;5375;51.250;6.776;2023-06-14T00:38:23;25.80;45.30
10654;DHT22;5375;51.250;6.776;2023-06-14T00:40:48;25.80;45.30
10654;DHT22;5375;51.250;6.776;2023-06-14T00:43:14;25.80;45.30
10654;DHT22;5375;51.250;6.776;2023-06-14T00:45:39;25.80;45.30
10654;DHT22;5375;51.250;6.776;2023-06-14T00:48:05;25.80;45.30
10654;DHT22;5375;51.250;6.776;2023-06-14T00:50:32;25.80;45.30
10654;DHT22;5375;51.250;6.776;2023-06-14T00:53:00;25.80;45.30
10654;DHT22;5375;51.250;6.776;2023-06-14T00:55:26;25.80;45.30
10654;DHT22;5375;51.250;6.776;2023-06-14T00:57:53;25.80;45.40
10654;DHT22;5375;51.250;6.776;2023-06-14T01:00:19;25.80;45.40
10654;DHT22;5375;51.250;6.776;2023-06-14T01:02:45;25.80;45.40
10654;DHT22;5375;51.250;6.776;2023-06-14T01:05:10;25.80;45.40
10654;DHT22;5375;51.250;6.776;2023-06-14T01:07:47;25.80;45.50
10654;DHT22;5375;51.250;6.776;2023-06-14T01:10:36;25.80;45.40
10654;DHT22;5375;51.250;6.776;2023-06-14T01:13:20;25.80;45.40
10654;DHT22;5375;51.250;6.776;2023-06-14T01:15:47;25.80;45.40
10654;DHT22;5375;51.250;6.776;2023-06-14T01:18:13;25.80;45.40
10654;DHT22;5375;51.250;6.776;2023-06-14T01:20:46;25.80;45.40
10654;DHT22;5375;51.250;6.776;2023-06-14T01:23:17;25.80;45.40
10654;DHT22;5375;51.250;6.776;2023-06-14T01:25:42;25.70;45.50
10654;DHT22;5375;51.250;6.776;2023-06-14T01:28:10;25.70;45.40
10654;DHT22;5375;51.250;6.776;2023-06-14T01:30:41;25.70;45.40
10654;DHT22;5375;51.250;6.776;2023-06-14T01:33:21;25.80;45.50
10654;DHT22;5375;51.250;6.776;2023-06-14T01:35:50;25.80;45.50
10654;DHT22;5375;51.250;6.776;2023-06-14T01:38:19;25.70;45.50
10654;DHT22;5375;51.250;6.776;2023-06-14T01:40:48;25.80;45.70
10654;DHT22;5375;51.250;6.776;2023-06-14T01:43:15;25.80;45.80
10654;DHT22;5375;51.250;6.776;2023-06-14T01:45:45;25.80;45.90
10654;DHT22;5375;51.250;6.776;2023-06-14T01:48:12;24.70;45.10
10654;DHT22;5375;51.250;6.776;2023-06-14T01:50:38;25.80;45.70
10654;DHT22;5375;51.250;6.776;2023-06-14T01:53:07;25.80;45.70
10654;DHT22;5375;51.250;6.776;2023-06-14T01:55:33;25.80;45.60
10654;DHT22;5375;51.250;6.776;2023-06-14T01:58:03;25.80;45.60
10654;DHT22;5375;51.250;6.776;2023-06-14T02:00:29;25.80;45.60
10654;DHT22;5375;51.250;6.776;2023-06-14T02:02:55;25.80;45.50
10654;DHT22;5375;51.250;6.776;2023-06-14T02:05:21;25.80;45.50
10654;DHT22;5375;51.250;6.776;2023-06-14T02:07:46;25.80;45.50
10654;DHT22;5375;51.250;6.776;2023-06-14T02:10:13;25.70;45.50
10654;DHT22;5375;51.250;6.776;2023-06-14T02:12:39;25.70;45.40
10654;DHT22;5375;51.250;6.776;2023-06-14T02:15:04;25.70;45.40
10654;DHT22;5375;51.250;6.776;2023-06-14T02:17:32;25.70;45.30
10654;DHT22;5375;51.250;6.776;2023-06-14T02:19:58;25.70;45.30
10654;DHT22;5375;51.250;6.776;2023-06-14T02:22:23;25.70;45.20
10654;DHT22;5375;51.250;6.776;2023-06-14T02:24:49;25.70;45.20
10654;DHT22;5375;51.250;6.776;2023-06-14T02:27:15;25.70;45.10
10654;DHT22;5375;51.250;6.776;2023-06-14T02:29:41;25.70;45.10
10654;DHT22;5375;51.250;6.776;2023-06-14T02:32:07;25.70;45.10
10654;DHT22;5375;51.250;6.776;2023-06-14T02:34:33;25.70;45.00
10654;DHT22;5375;51.250;6.776;2023-06-14T02:36:59;25.70;45.00
10654;DHT22;5375;51.250;6.776;2023-06-14T02:39:25;25.70;45.00
10654;DHT22;5375;51.250;6.776;2023-06-14T02:41:50;25.70;44.90
10654;DHT22;5375;51.250;6.776;2023-06-14T02:44:19;25.70;44.90
10654;DHT22;5375;51.250;6.776;2023-06-14T02:46:45;25.70;45.70
10654;DHT22;5375;51.250;6.776;2023-06-14T02:49:11;25.70;45.20
10654;DHT22;5375;51.250;6.776;2023-06-14T02:51:37;25.70;45.10
10654;DHT22;5375;51.250;6.776;2023-06-14T02:54:02;25.70;44.80
10654;DHT22;5375;51.250;6.776;2023-06-14T02:56:29;25.70;44.50
10654;DHT22;5375;51.250;6.776;2023-06-14T02:58:54;25.70;44.90
10654;DHT22;5375;51.250;6.776;2023-06-14T03:01:20;25.60;44.10
10654;DHT22;5375;51.250;6.776;2023-06-14T03:03:47;25.60;43.90
10654;DHT22;5375;51.250;6.776;2023-06-14T03:06:12;25.60;43.80
10654;DHT22;5375;51.250;6.776;2023-06-14T03:08:40;25.60;43.80
10654;DHT22;5375;51.250;6.776;2023-06-14T03:11:07;25.60;43.70
10654;DHT22;5375;51.250;6.776;2023-06-14T03:13:34;25.50;43.60
10654;DHT22;5375;51.250;6.776;2023-06-14T03:15:59;25.50;43.60
10654;DHT22;5375;51.250;6.776;2023-06-14T03:18:29;25.50;43.50
10654;DHT22;5375;51.250;6.776;2023-06-14T03:20:56;25.50;43.40
10654;DHT22;5375;51.250;6.776;2023-06-14T03:23:23;25.50;43.40
10654;DHT22;5375;51.250;6.776;2023-06-14T03:25:48;25.50;43.40
10654;DHT22;5375;51.250;6.776;2023-06-14T03:28:14;25.50;43.40
10654;DHT22;5375;51.250;6.776;2023-06-14T03:30:40;25.50;43.30
10654;DHT22;5375;51.250;6.776;2023-06-14T03:33:05;25.40;43.20
10654;DHT22;5375;51.250;6.776;2023-06-14T03:35:31;25.40;43.10
10654;DHT22;5375;51.250;6.776;2023-06-14T03:37:57;25.40;43.10
10654;DHT22;5375;51.250;6.776;2023-06-14T03:40:22;25.40;43.00
10654;DHT22;5375;51.250;6.776;2023-06-14T03:42:53;25.40;43.00
10654;DHT22;5375;51.250;6.776;2023-06-14T03:45:19;25.40;43.00
10654;DHT22;5375;51.250;6.776;2023-06-14T03:47:44;25.40;42.90
10654;DHT22;5375;51.250;6.776;2023-06-14T03:50:10;25.40;42.90
10654;DHT22;5375;51.250;6.776;2023-06-14T03:52:36;25.40;42.90
10654;DHT22;5375;51.250;6.776;2023-06-14T03:55:02;25.30;42.80
10654;DHT22;5375;51.250;6.776;2023-06-14T03:57:29;25.30;42.80
10654;DHT22;5375;51.250;6.776;2023-06-14T03:59:54;25.30;42.70
10654;DHT22;5375;51.250;6.776;2023-06-14T04:02:20;25.30;42.70
10654;DHT22;5375;51.250;6.776;2023-06-14T04:04:46;25.20;42.60
10654;DHT22;5375;51.250;6.776;2023-06-14T04:07:12;25.30;42.60
10654;DHT22;5375;51.250;6.776;2023-06-14T04:09:38;25.30;42.30
10654;DHT22;5375;51.250;6.776;2023-06-14T04:12:05;25.20;42.10
10654;DHT22;5375;51.250;6.776;2023-06-14T04:14:31;25.20;42.00
10654;DHT22;5375;51.250;6.776;2023-06-14T04:16:58;25.20;41.90
10654;DHT22;5375;51.250;6.776;2023-06-14T04:19:24;25.20;41.80
10654;DHT22;5375;51.250;6.776;2023-06-14T04:21:50;25.20;41.70
10654;DHT22;5375;51.250;6.776;2023-06-14T04:24:15;25.20;41.70
10654;DHT22;5375;51.250;6.776;2023-06-14T04:26:42;25.20;41.70
10654;DHT22;5375;51.250;6.776;2023-06-14T04:29:13;25.20;41.70
10654;DHT22;5375;51.250;6.776;2023-06-14T04:31:46;25.20;41.60
10654;DHT22;5375;51.250;6.776;2023-06-14T04:34:12;26.10;42.20
10654;DHT22;5375;51.250;6.776;2023-06-14T04:36:43;25.20;41.70
10654;DHT22;5375;51.250;6.776;2023-06-14T04:39:15;25.20;41.60
10654;DHT22;5375;51.250;6.776;2023-06-14T04:41:43;25.20;41.40
10654;DHT22;5375;51.250;6.776;2023-06-14T04:44:08;25.10;41.40
10654;DHT22;5375;51.250;6.776;2023-06-14T04:46:36;25.10;41.30
10654;DHT22;5375;51.250;6.776;2023-06-14T04:49:12;25.20;41.30
10654;DHT22;5375;51.250;6.776;2023-06-14T04:51:41;25.10;41.20
10654;DHT22;5375;51.250;6.776;2023-06-14T04:54:11;25.10;41.10
10654;DHT22;5375;51.250;6.776;2023-06-14T04:56:43;25.00;41.10
10654;DHT22;5375;51.250;6.776;2023-06-14T04:59:09;25.00;41.00
10654;DHT22;5375;51.250;6.776;2023-06-14T05:01:36;25.00;41.00
10654;DHT22;5375;51.250;6.776;2023-06-14T05:04:03;25.00;41.00
10654;DHT22;5375;51.250;6.776;2023-06-14T05:06:29;25.00;41.10
10654;DHT22;5375;51.250;6.776;2023-06-14T05:08:55;25.00;41.00
10654;DHT22;5375;51.250;6.776;2023-06-14T05:11:21;25.00;41.00
10654;DHT22;5375;51.250;6.776;2023-06-14T05:13:49;25.00;41.10
10654;DHT22;5375;51.250;6.776;2023-06-14T05:16:15;24.90;40.80
10654;DHT22;5375;51.250;6.776;2023-06-14T05:18:42;24.90;40.60
10654;DHT22;5375;51.250;6.776;2023-06-14T05:21:08;24.90;40.50
10654;DHT22;5375;51.250;6.776;2023-06-14T05:23:34;24.90;40.30
10654;DHT22;5375;51.250;6.776;2023-06-14T05:26:00;24.90;40.30
10654;DHT22;5375;51.250;6.776;2023-06-14T05:28:28;24.90;40.20
10654;DHT22;5375;51.250;6.776;2023-06-14T05:30:53;24.90;40.10
10654;DHT22;5375;51.250;6.776;2023-06-14T05:33:19;24.90;40.20
10654;DHT22;5375;51.250;6.776;2023-06-14T05:35:44;24.90;40.40
10654;DHT22;5375;51.250;6.776;2023-06-14T05:38:10;24.90;40.50
10654;DHT22;5375;51.250;6.776;2023-06-14T05:40:36;25.00;40.60
10654;DHT22;5375;51.250;6.776;2023-06-14T05:43:02;25.00;40.60
10654;DHT22;5375;51.250;6.776;2023-06-14T05:45:27;25.00;40.70
10654;DHT22;5375;51.250;6.776;2023-06-14T05:47:53;25.00;40.70
10654;DHT22;5375;51.250;6.776;2023-06-14T05:50:20;25.10;40.80
10654;DHT22;5375;51.250;6.776;2023-06-14T05:52:46;25.10;40.30
10654;DHT22;5375;51.250;6.776;2023-06-14T05:55:11;25.10;40.90
10654;DHT22;5375;51.250;6.776;2023-06-14T05:57:40;25.20;41.00
10654;DHT22;5375;51.250;6.776;2023-06-14T06:00:07;25.20;40.90
10654;DHT22;5375;51.250;6.776;2023-06-14T06:02:44;25.20;41.00
10654;DHT22;5375;51.250;6.776;2023-06-14T06:05:10;25.20;41.00
10654;DHT22;5375;51.250;6.776;2023-06-14T06:07:37;25.20;41.00
10654;DHT22;5375;51.250;6.776;2023-06-14T06:10:03;25.20;41.10
10654;DHT22;5375;51.250;6.776;2023-06-14T06:12:30;25.20;41.10
10654;DHT22;5375;51.250;6.776;2023-06-14T06:14:55;25.20;41.40
10654;DHT22;5375;51.250;6.776;2023-06-14T06:17:21;25.30;41.60
10654;DHT22;5375;51.250;6.776;2023-06-14T06:19:47;25.30;41.90
10654;DHT22;5375;51.250;6.776;2023-06-14T06:22:12;25.40;42.00
10654;DHT22;5375;51.250;6.776;2023-06-14T06:24:38;25.40;42.10
10654;DHT22;5375;51.250;6.776;2023-06-14T06:27:04;25.50;42.30
10654;DHT22;5375;51.250;6.776;2023-06-14T06:29:29;25.50;42.30
10654;DHT22;5375;51.250;6.776;2023-06-14T06:31:55;25.40;42.30
10654;DHT22;5375;51.250;6.776;2023-06-14T06:34:22;25.60;42.50
10654;DHT22;5375;51.250;6.776;2023-06-14T06:36:47;25.60;42.50
10654;DHT22;5375;51.250;6.776;2023-06-14T06:39:13;25.60;42.60
10654;DHT22;5375;51.250;6.776;2023-06-14T06:41:40;25.60;42.60
10654;DHT22;5375;51.250;6.776;2023-06-14T06:44:06;25.60;42.70
10654;DHT22;5375;51.250;6.776;2023-06-14T06:46:32;25.70;42.80
10654;DHT22;5375;51.250;6.776;2023-06-14T06:48:59;25.70;42.80
10654;DHT22;5375;51.250;6.776;2023-06-14T06:51:24;25.70;42.90
10654;DHT22;5375;51.250;6.776;2023-06-14T06:53:53;25.70;42.90
10654;DHT22;5375;51.250;6.776;2023-06-14T06:56:20;25.70;42.90
10654;DHT22;5375;51.250;6.776;2023-06-14T06:58:47;25.80;43.00
10654;DHT22;5375;51.250;6.776;2023-06-14T07:01:12;25.80;43.10
10654;DHT22;5375;51.250;6.776;2023-06-14T07:03:38;25.80;43.10
10654;DHT22;5375;51.250;6.776;2023-06-14T07:06:04;25.80;43.10
10654;DHT22;5375;51.250;6.776;2023-06-14T07:08:30;25.80;43.20
10654;DHT22;5375;51.250;6.776;2023-06-14T07:10:55;25.80;43.20
10654;DHT22;5375;51.250;6.776;2023-06-14T07:13:21;25.80;43.20
10654;DHT22;5375;51.250;6.776;2023-06-14T07:15:47;25.80;43.30
10654;DHT22;5375;51.250;6.776;2023-06-14T07:18:13;25.80;43.30
10654;DHT22;5375;51.250;6.776;2023-06-14T07:20:38;25.90;43.40
10654;DHT22;5375;51.250;6.776;2023-06-14T07:23:04;25.90;43.50
10654;DHT22;5375;51.250;6.776;2023-06-14T07:25:31;25.90;43.50
10654;DHT22;5375;51.250;6.776;2023-06-14T07:27:56;25.90;43.50
10654;DHT22;5375;51.250;6.776;2023-06-14T07:30:22;25.90;43.60
10654;DHT22;5375;51.250;6.776;2023-06-14T07:32:51;25.90;43.50
10654;DHT22;5375;51.250;6.776;2023-06-14T07:35:18;25.90;43.60
10654;DHT22;5375;51.250;6.776;2023-06-14T07:37:43;25.90;43.60
10654;DHT22;5375;51.250;6.776;2023-06-14T07:40:09;26.00;43.70
10654;DHT22;5375;51.250;6.776;2023-06-14T07:42:35;25.90;43.60
10654;DHT22;5375;51.250;6.776;2023-06-14T07:45:02;26.00;43.80
10654;DHT22;5375;51.250;6.776;2023-06-14T07:47:28;26.00;43.70
10654;DHT22;5375;51.250;6.776;2023-06-14T07:49:54;26.00;43.70
10654;DHT22;5375;51.250;6.776;2023-06-14T07:52:19;26.00;43.70
10654;DHT22;5375;51.250;6.776;2023-06-14T07:54:45;26.00;43.70
10654;DHT22;5375;51.250;6.776;2023-06-14T07:57:11;26.00;43.70
10654;DHT22;5375;51.250;6.776;2023-06-14T07:59:36;26.00;43.80
10654;DHT22;5375;51.250;6.776;2023-06-14T08:02:02;26.00;43.80
10654;DHT22;5375;51.250;6.776;2023-06-14T08:04:28;26.00;43.80
10654;DHT22;5375;51.250;6.776;2023-06-14T08:06:53;26.00;43.90
10654;DHT22;5375;51.250;6.776;2023-06-14T08:09:19;26.00;43.90
10654;DHT22;5375;51.250;6.776;2023-06-14T08:11:44;26.00;43.90
10654;DHT22;5375;51.250;6.776;2023-06-14T08:14:10;26.00;43.90
10654;DHT22;5375;51.250;6.776;2023-06-14T08:16:36;26.00;43.90
10654;DHT22;5375;51.250;6.776;2023-06-14T08:19:03;26.00;44.00
10654;DHT22;5375;51.250;6.776;2023-06-14T08:21:28;26.00;44.00
10654;DHT22;5375;51.250;6.776;2023-06-14T08:23:55;26.00;44.00
10654;DHT22;5375;51.250;6.776;2023-06-14T08:26:21;26.00;44.00
10654;DHT22;5375;51.250;6.776;2023-06-14T08:28:47;26.00;44.00
10654;DHT22;5375;51.250;6.776;2023-06-14T08:31:13;26.00;44.00
10654;DHT22;5375;51.250;6.776;2023-06-14T08:33:39;26.00;44.00
10654;DHT22;5375;51.250;6.776;2023-06-14T08:36:08;26.00;44.00
10654;DHT22;5375;51.250;6.776;2023-06-14T08:38:34;26.00;44.00
10654;DHT22;5375;51.250;6.776;2023-06-14T08:41:01;26.00;44.00
10654;DHT22;5375;51.250;6.776;2023-06-14T08:43:27;26.00;44.00
10654;DHT22;5375;51.250;6.776;2023-06-14T08:46:00;26.00;44.00
10654;DHT22;5375;51.250;6.776;2023-06-14T08:48:29;26.00;44.10
10654;DHT22;5375;51.250;6.776;2023-06-14T08:50:59;26.00;44.20
10654;DHT22;5375;51.250;6.776;2023-06-14T08:53:31;26.00;44.20
10654;DHT22;5375;51.250;6.776;2023-06-14T08:55:58;26.00;44.40
10654;DHT22;5375;51.250;6.776;2023-06-14T08:58:27;26.00;44.40
10654;DHT22;5375;51.250;6.776;2023-06-14T09:00:55;26.00;44.40
10654;DHT22;5375;51.250;6.776;2023-06-14T09:03:21;26.00;44.40
10654;DHT22;5375;51.250;6.776;2023-06-14T09:05:48;26.10;44.50
10654;DHT22;5375;51.250;6.776;2023-06-14T09:08:15;26.10;44.50
10654;DHT22;5375;51.250;6.776;2023-06-14T09:10:41;26.10;44.50
10654;DHT22;5375;51.250;6.776;2023-06-14T09:13:07;26.10;44.50
10654;DHT22;5375;51.250;6.776;2023-06-14T09:15:33;26.10;44.50
10654;DHT22;5375;51.250;6.776;2023-06-14T09:18:01;26.20;44.50
10654;DHT22;5375;51.250;6.776;2023-06-14T09:20:29;26.20;44.60
10654;DHT22;5375;51.250;6.776;2023-06-14T09:22:55;26.20;44.70
10654;DHT22;5375;51.250;6.776;2023-06-14T09:25:21;26.20;44.70
10654;DHT22;5375;51.250;6.776;2023-06-14T09:27:47;26.10;44.70
10654;DHT22;5375;51.250;6.776;2023-06-14T09:30:13;26.20;44.80
10654;DHT22;5375;51.250;6.776;2023-06-14T09:32:39;26.10;44.80
10654;DHT22;5375;51.250;6.776;2023-06-14T09:35:06;26.20;44.80
10654;DHT22;5375;51.250;6.776;2023-06-14T09:37:34;26.20;44.90
10654;DHT22;5375;51.250;6.776;2023-06-14T09:40:00;26.20;44.80
10654;DHT22;5375;51.250;6.776;2023-06-14T09:42:26;26.20;44.80
10654;DHT22;5375;51.250;6.776;2023-06-14T09:44:54;26.20;44.80
10654;DHT22;5375;51.250;6.776;2023-06-14T09:47:21;26.20;44.80
10654;DHT22;5375;51.250;6.776;2023-06-14T09:49:47;26.20;44.80
10654;DHT22;5375;51.250;6.776;2023-06-14T09:52:22;26.20;44.80
10654;DHT22;5375;51.250;6.776;2023-06-14T09:54:49;26.20;44.80
10654;DHT22;5375;51.250;6.776;2023-06-14T09:57:20;26.20;44.80
10654;DHT22;5375;51.250;6.776;2023-06-14T09:59:47;26.20;44.90
10654;DHT22;5375;51.250;6.776;2023-06-14T10:04:56;26.20;45.00
10654;DHT22;5375;51.250;6.776;2023-06-14T10:07:26;26.20;45.00
10654;DHT22;5375;51.250;6.776;2023-06-14T10:09:55;26.20;45.60
10654;DHT22;5375;51.250;6.776;2023-06-14T10:12:21;26.20;45.10
10654;DHT22;5375;51.250;6.776;2023-06-14T10:14:51;26.20;45.10
10654;DHT22;5375;51.250;6.776;2023-06-14T10:17:47;26.20;45.10
10654;DHT22;5375;51.250;6.776;2023-06-14T10:20:26;26.20;45.10
10654;DHT22;5375;51.250;6.776;2023-06-14T10:23:02;26.20;45.00
10654;DHT22;5375;51.250;6.776;2023-06-14T10:25:30;26.20;44.50
10654;DHT22;5375;51.250;6.776;2023-06-14T10:28:22;26.20;45.10
10654;DHT22;5375;51.250;6.776;2023-06-14T10:33:30;26.20;45.10
10654;DHT22;5375;51.250;6.776;2023-06-14T10:39:00;26.20;45.00
10654;DHT22;5375;51.250;6.776;2023-06-14T10:41:28;26.20;45.10
10654;DHT22;5375;51.250;6.776;2023-06-14T10:46:38;26.20;45.10
10654;DHT22;5375;51.250;6.776;2023-06-14T10:49:04;26.10;45.00
10654;DHT22;5375;51.250;6.776;2023-06-14T10:51:41;26.10;44.50
10654;DHT22;5375;51.250;6.776;2023-06-14T10:54:15;26.10;45.10
10654;DHT22;5375;51.250;6.776;2023-06-14T10:56:51;26.10;45.10
10654;DHT22;5375;51.250;6.776;2023-06-14T10:59:18;26.20;45.20
10654;DHT22;5375;51.250;6.776;2023-06-14T11:04:52;26.10;45.00
10654;DHT22;5375;51.250;6.776;2023-06-14T11:08:07;26.10;45.10
10654;DHT22;5375;51.250;6.776;2023-06-14T11:12:41;26.10;45.10
10654;DHT22;5375;51.250;6.776;2023-06-14T11:15:11;26.10;45.10
10654;DHT22;5375;51.250;6.776;2023-06-14T11:17:36;26.10;45.10
10654;DHT22;5375;51.250;6.776;2023-06-14T11:20:12;26.10;45.10
10654;DHT22;5375;51.250;6.776;2023-06-14T11:22:44;26.10;44.60
10654;DHT22;5375;51.250;6.776;2023-06-14T11:25:11;27.40;46.00
10654;DHT22;5375;51.250;6.776;2023-06-14T11:27:37;26.10;45.20
10654;DHT22;5375;51.250;6.776;2023-06-14T11:30:06;26.10;45.20
10654;DHT22;5375;51.250;6.776;2023-06-14T11:32:32;26.10;45.20
10654;DHT22;5375;51.250;6.776;2023-06-14T11:34:58;26.10;45.20
10654;DHT22;5375;51.250;6.776;2023-06-14T11:37:25;26.10;45.20
10654;DHT22;5375;51.250;6.776;2023-06-14T11:39:57;26.10;45.20
10654;DHT22;5375;51.250;6.776;2023-06-14T11:42:24;26.10;45.20
10654;DHT22;5375;51.250;6.776;2023-06-14T11:44:50;26.10;45.20
10654;DHT22;5375;51.250;6.776;2023-06-14T11:47:16;26.10;45.20
10654;DHT22;5375;51.250;6.776;2023-06-14T11:49:41;26.10;45.20
10654;DHT22;5375;51.250;6.776;2023-06-14T11:52:07;26.10;45.30
10654;DHT22;5375;51.250;6.776;2023-06-14T11:54:33;26.10;45.30
10654;DHT22;5375;51.250;6.776;2023-06-14T11:56:59;26.10;45.30
10654;DHT22;5375;51.250;6.776;2023-06-14T11:59:25;26.10;45.30
10654;DHT22;5375;51.250;6.776;2023-06-14T12:01:53;26.10;45.30
10654;DHT22;5375;51.250;6.776;2023-06-14T12:04:28;26.10;45.30
10654;DHT22;5375;51.250;6.776;2023-06-14T12:06:54;26.10;45.30
10654;DHT22;5375;51.250;6.776;2023-06-14T12:09:21;26.10;45.40
10654;DHT22;5375;51.250;6.776;2023-06-14T12:11:49;26.10;45.40
10654;DHT22;5375;51.250;6.776;2023-06-14T12:14:14;26.10;45.40
10654;DHT22;5375;51.250;6.776;2023-06-14T12:16:41;26.10;45.40
10654;DHT22;5375;51.250;6.776;2023-06-14T12:19:16;26.10;45.40
10654;DHT22;5375;51.250;6.776;2023-06-14T12:21:43;26.10;45.40
10654;DHT22;5375;51.250;6.776;2023-06-14T12:24:12;26.10;45.40
10654;DHT22;5375;51.250;6.776;2023-06-14T12:26:39;26.10;45.40
10654;DHT22;5375;51.250;6.776;2023-06-14T12:29:06;26.10;45.40
10654;DHT22;5375;51.250;6.776;2023-06-14T12:31:33;26.10;45.40
10654;DHT22;5375;51.250;6.776;2023-06-14T12:33:59;26.10;45.40
10654;DHT22;5375;51.250;6.776;2023-06-14T12:36:25;26.10;45.40
10654;DHT22;5375;51.250;6.776;2023-06-14T12:38:51;26.10;45.50
10654;DHT22;5375;51.250;6.776;2023-06-14T12:41:21;26.10;45.60
10654;DHT22;5375;51.250;6.776;2023-06-14T12:43:47;26.10;45.60
10654;DHT22;5375;51.250;6.776;2023-06-14T12:46:13;26.10;45.60
10654;DHT22;5375;51.250;6.776;2023-06-14T12:48:39;26.10;45.60
10654;DHT22;5375;51.250;6.776;2023-06-14T12:51:04;26.10;45.60
10654;DHT22;5375;51.250;6.776;2023-06-14T12:53:30;26.10;45.60
10654;DHT22;5375;51.250;6.776;2023-06-14T12:55:56;26.10;45.60
10654;DHT22;5375;51.250;6.776;2023-06-14T12:58:21;26.10;45.60
10654;DHT22;5375;51.250;6.776;2023-06-14T13:00:49;26.10;45.60
10654;DHT22;5375;51.250;6.776;2023-06-14T13:03:15;26.20;45.70
10654;DHT22;5375;51.250;6.776;2023-06-14T13:05:40;26.20;45.70
10654;DHT22;5375;51.250;6.776;2023-06-14T13:08:07;26.20;45.70
10654;DHT22;5375;51.250;6.776;2023-06-14T13:10:36;26.20;45.70
10654;DHT22;5375;51.250;6.776;2023-06-14T13:13:02;26.20;45.70
10654;DHT22;5375;51.250;6.776;2023-06-14T13:15:28;26.20;45.70
10654;DHT22;5375;51.250;6.776;2023-06-14T13:17:53;26.20;45.70
10654;DHT22;5375;51.250;6.776;2023-06-14T13:20:19;26.30;45.80
10654;DHT22;5375;51.250;6.776;2023-06-14T13:22:44;26.30;45.70
10654;DHT22;5375;51.250;6.776;2023-06-14T13:25:10;26.30;45.80
10654;DHT22;5375;51.250;6.776;2023-06-14T13:27:36;26.30;45.80
10654;DHT22;5375;51.250;6.776;2023-06-14T13:30:02;26.30;45.80
10654;DHT22;5375;51.250;6.776;2023-06-14T13:32:28;26.30;45.80
10654;DHT22;5375;51.250;6.776;2023-06-14T13:34:53;26.30;45.80
10654;DHT22;5375;51.250;6.776;2023-06-14T13:37:19;26.30;45.80
10654;DHT22;5375;51.250;6.776;2023-06-14T13:39:45;26.30;45.90
10654;DHT22;5375;51.250;6.776;2023-06-14T13:42:10;26.30;45.30
10654;DHT22;5375;51.250;6.776;2023-06-14T13:44:36;26.30;45.90
10654;DHT22;5375;51.250;6.776;2023-06-14T13:47:02;26.30;45.70
10654;DHT22;5375;51.250;6.776;2023-06-14T13:49:28;26.20;45.70
10654;DHT22;5375;51.250;6.776;2023-06-14T13:51:53;26.20;45.70
10654;DHT22;5375;51.250;6.776;2023-06-14T13:54:20;26.20;45.80
10654;DHT22;5375;51.250;6.776;2023-06-14T13:56:46;26.20;45.80
10654;DHT22;5375;51.250;6.776;2023-06-14T13:59:12;26.20;46.00
10654;DHT22;5375;51.250;6.776;2023-06-14T14:01:37;26.10;45.80
10654;DHT22;5375;51.250;6.776;2023-06-14T14:04:04;26.10;45.90
10654;DHT22;5375;51.250;6.776;2023-06-14T14:06:30;26.10;46.00
10654;DHT22;5375;51.250;6.776;2023-06-14T14:08:56;26.10;46.00
10654;DHT22;5375;51.250;6.776;2023-06-14T14:11:22;26.10;46.00
10654;DHT22;5375;51.250;6.776;2023-06-14T14:13:48;26.10;46.00
10654;DHT22;5375;51.250;6.776;2023-06-14T14:16:14;26.10;46.00
10654;DHT22;5375;51.250;6.776;2023-06-14T14:18:40;26.10;46.00
10654;DHT22;5375;51.250;6.776;2023-06-14T14:21:05;26.10;46.00
10654;DHT22;5375;51.250;6.776;2023-06-14T14:23:31;26.10;46.10
10654;DHT22;5375;51.250;6.776;2023-06-14T14:25:57;26.00;46.00
10654;DHT22;5375;51.250;6.776;2023-06-14T14:28:22;26.10;46.10
10654;DHT22;5375;51.250;6.776;2023-06-14T14:30:48;26.10;46.10
10654;DHT22;5375;51.250;6.776;2023-06-14T14:33:14;26.10;46.20
10654;DHT22;5375;51.250;6.776;2023-06-14T14:35:43;26.10;46.10
10654;DHT22;5375;51.250;6.776;2023-06-14T14:38:11;26.10;46.20
10654;DHT22;5375;51.250;6.776;2023-06-14T14:40:37;26.10;46.10
10654;DHT22;5375;51.250;6.776;2023-06-14T14:43:02;26.10;46.20
10654;DHT22;5375;51.250;6.776;2023-06-14T14:45:28;26.10;46.10
10654;DHT22;5375;51.250;6.776;2023-06-14T14:47:54;26.10;46.10
10654;DHT22;5375;51.250;6.776;2023-06-14T14:50:19;26.10;46.10
10654;DHT22;5375;51.250;6.776;2023-06-14T14:52:45;26.10;46.20
10654;DHT22;5375;51.250;6.776;2023-06-14T14:55:11;26.10;46.10
10654;DHT22;5375;51.250;6.776;2023-06-14T14:57:36;26.20;46.20
10654;DHT22;5375;51.250;6.776;2023-06-14T15:00:04;26.20;46.20
10654;DHT22;5375;51.250;6.776;2023-06-14T15:02:31;26.10;46.10
10654;DHT22;5375;51.250;6.776;2023-06-14T15:04:56;26.20;46.20
10654;DHT22;5375;51.250;6.776;2023-06-14T15:07:29;26.10;46.20
10654;DHT22;5375;51.250;6.776;2023-06-14T15:09:55;26.10;46.20
10654;DHT22;5375;51.250;6.776;2023-06-14T15:12:21;26.10;46.20
10654;DHT22;5375;51.250;6.776;2023-06-14T15:14:50;26.10;46.30
10654;DHT22;5375;51.250;6.776;2023-06-14T15:17:16;26.10;46.30
10654;DHT22;5375;51.250;6.776;2023-06-14T15:19:43;26.10;46.30
10654;DHT22;5375;51.250;6.776;2023-06-14T15:22:09;26.10;46.40
10654;DHT22;5375;51.250;6.776;2023-06-14T15:24:35;26.10;46.40
10654;DHT22;5375;51.250;6.776;2023-06-14T15:27:00;26.10;46.40
10654;DHT22;5375;51.250;6.776;2023-06-14T15:29:26;26.10;46.40
10654;DHT22;5375;51.250;6.776;2023-06-14T15:31:51;26.10;46.40
10654;DHT22;5375;51.250;6.776;2023-06-14T15:34:20;26.10;46.50
10654;DHT22;5375;51.250;6.776;2023-06-14T15:36:46;26.10;47.10
10654;DHT22;5375;51.250;6.776;2023-06-14T15:39:11;26.10;46.40
10654;DHT22;5375;51.250;6.776;2023-06-14T15:41:37;26.10;46.50
10654;DHT22;5375;51.250;6.776;2023-06-14T15:44:03;26.10;46.50
10654;DHT22;5375;51.250;6.776;2023-06-14T15:46:29;26.10;46.50
10654;DHT22;5375;51.250;6.776;2023-06-14T15:48:54;26.10;46.50
10654;DHT22;5375;51.250;6.776;2023-06-14T15:51:20;26.10;46.50
10654;DHT22;5375;51.250;6.776;2023-06-14T15:53:46;26.10;46.50
10654;DHT22;5375;51.250;6.776;2023-06-14T15:56:11;26.10;46.50
10654;DHT22;5375;51.250;6.776;2023-06-14T15:58:37;26.10;46.50
10654;DHT22;5375;51.250;6.776;2023-06-14T16:01:02;26.10;46.60